»·PEaware :: N713AG KDTA-KLAS

N713AG :: KDTA-KLAS

FLIGHT INFORMATION

Flight Status: Arrived
Operator: Privately registered:
United States
More flights under this callsign
Pilot: Charles S. (11412)
Aircraft: SOCATA TBM-900
(TBM9)
More flights by this aircraft type
Origin: KDTA Delta Mun
United States
Destination: KLAS McCarran Intl
United States
More flights between these airports :: More routes between these airports
Route: +MLF V21 MMM V8 CROWE
File this flight plan on PilotEdge
Remarks:
Altitude:
(Current/Filed)
30,000ft
Speed:
(Current/Filed)
220kts
Departed: 04-Nov-18 03:49 PM
Arrived: 04-Nov-18 05:26 PM
Distance/Time
Traveled:
235nm/1:37
Distance/Time
To Go:
Arrived

Flight Plot

Page will automatically refresh every two minutes.

Flight plan parsing failed; only flown route is shown


Map Options




Map Legend


Flown Route
Filed Route
Departure Airport
Arrival Airport
Navaid (VOR, NDB)
Fix

Horizontal Profiles

Position Reports

Time Latitude Longitude Heading Altitude Ground
Speed
04-Nov-18 15:38 39.386078 -112.512863 42 4755ft 0kts
04-Nov-18 15:39 39.386078 -112.512863 42 4755ft 0kts
04-Nov-18 15:40 39.386078 -112.512863 42 4755ft 0kts
04-Nov-18 15:41 39.386078 -112.512863 42 4755ft 0kts
04-Nov-18 15:42 39.386078 -112.512863 42 4755ft 0kts
04-Nov-18 15:43 39.386078 -112.512863 42 4755ft 0kts
04-Nov-18 15:44 39.386078 -112.512863 42 4755ft 0kts
04-Nov-18 15:45 39.386078 -112.512863 42 4755ft 0kts
04-Nov-18 15:46 39.386078 -112.512863 42 4755ft 0kts
04-Nov-18 15:47 39.386078 -112.512863 42 4755ft 0kts
04-Nov-18 15:48 39.386078 -112.512863 42 4755ft 0kts
04-Nov-18 15:49 39.384357 -112.511022 52 4757ft 19kts
04-Nov-18 15:50 39.390005 -112.503688 44 4757ft 35kts
04-Nov-18 15:51 39.390494 -112.503063 50 4757ft 2kts
04-Nov-18 15:52 39.375820 -112.502308 180 5157ft 126kts
04-Nov-18 15:53 39.339301 -112.524182 203 6884ft 163kts
04-Nov-18 15:54 39.306428 -112.541229 203 8445ft 166kts
04-Nov-18 15:55 39.274783 -112.557250 205 9918ft 165kts
04-Nov-18 15:56 39.240280 -112.574684 207 11529ft 162kts
04-Nov-18 15:57 39.209949 -112.590022 209 12965ft 178kts
04-Nov-18 15:58 39.183182 -112.603526 210 14090ft 187kts
04-Nov-18 15:59 39.155400 -112.617519 211 15139ft 193kts
04-Nov-18 16:00 39.128628 -112.630998 212 16118ft 195kts
04-Nov-18 16:01 39.100011 -112.645389 213 17154ft 198kts
04-Nov-18 16:02 39.075888 -112.657506 214 18010ft 199kts
04-Nov-18 16:03 39.051261 -112.669874 215 18884ft 199kts
04-Nov-18 16:04 39.025043 -112.682988 220 19829ft 196kts
04-Nov-18 16:05 38.998230 -112.696504 220 20794ft 194kts
04-Nov-18 16:06 38.971357 -112.709971 221 21769ft 191kts
04-Nov-18 16:07 38.941404 -112.724963 221 22877ft 187kts
04-Nov-18 16:08 38.910069 -112.740771 220 23709ft 199kts
04-Nov-18 16:09 38.874477 -112.758583 218 24422ft 212kts
04-Nov-18 16:10 38.834563 -112.778405 218 25160ft 219kts
04-Nov-18 16:11 38.799599 -112.795798 218 25777ft 222kts
04-Nov-18 16:12 38.758623 -112.816185 219 26486ft 224kts
04-Nov-18 16:13 38.713942 -112.838532 218 27276ft 244kts
04-Nov-18 16:14 38.668959 -112.860856 217 28017ft 262kts
04-Nov-18 16:15 38.630983 -112.879653 217 28588ft 271kts
04-Nov-18 16:16 38.587950 -112.900950 217 29208ft 277kts
04-Nov-18 16:17 38.540743 -112.924288 217 29864ft 281kts
04-Nov-18 16:18 38.497226 -112.945878 216 30008ft 297kts
04-Nov-18 16:19 38.452047 -112.968164 215 29988ft 311kts
04-Nov-18 16:20 38.404773 -112.991421 215 29987ft 318kts
04-Nov-18 16:20 38.352711 -113.019924 226 29977ft 308kts
04-Nov-18 16:22 38.289422 -113.071031 226 29984ft 310kts
04-Nov-18 16:22 38.250439 -113.102705 226 29983ft 310kts
04-Nov-18 16:24 38.203536 -113.140769 226 29987ft 311kts
04-Nov-18 16:24 38.161513 -113.174837 226 29995ft 311kts
04-Nov-18 16:25 38.119857 -113.208552 226 30008ft 311kts
04-Nov-18 16:26 38.079573 -113.241121 226 30024ft 311kts
04-Nov-18 16:27 38.039153 -113.273744 226 30036ft 311kts
04-Nov-18 16:28 37.996760 -113.307928 226 30038ft 311kts
04-Nov-18 16:29 37.954694 -113.341816 226 30039ft 311kts
04-Nov-18 16:30 37.912138 -113.375995 226 30045ft 311kts
04-Nov-18 16:31 37.871813 -113.408378 226 30026ft 311kts
04-Nov-18 16:32 37.830188 -113.441756 226 29968ft 310kts
04-Nov-18 16:34 37.769645 -113.490224 226 29062ft 305kts
04-Nov-18 16:35 37.724947 -113.525949 226 28395ft 303kts
04-Nov-18 16:36 37.683296 -113.559192 225 27773ft 302kts
04-Nov-18 16:37 37.643655 -113.590786 225 27183ft 301kts
04-Nov-18 16:38 37.601462 -113.624369 225 26554ft 301kts
04-Nov-18 16:39 37.560685 -113.656774 224 25971ft 301kts
04-Nov-18 16:40 37.508464 -113.698227 224 25407ft 303kts
04-Nov-18 16:41 37.468659 -113.729764 223 24977ft 303kts
04-Nov-18 16:42 37.428902 -113.761228 223 24546ft 304kts
04-Nov-18 16:43 37.389600 -113.792288 223 24121ft 304kts
04-Nov-18 16:44 37.347742 -113.825342 223 23582ft 305kts
04-Nov-18 16:45 37.307422 -113.857123 222 22865ft 305kts
04-Nov-18 16:46 37.267845 -113.888276 222 22162ft 305kts
04-Nov-18 16:47 37.226639 -113.920680 221 21426ft 305kts
04-Nov-18 16:48 37.184970 -113.953382 221 20589ft 299kts
04-Nov-18 16:49 37.143732 -113.985723 221 19742ft 294kts
04-Nov-18 16:50 37.102606 -114.017919 221 19141ft 286kts
04-Nov-18 16:51 37.058048 -114.052790 220 18479ft 283kts
04-Nov-18 16:52 36.996925 -114.100526 219 17580ft 284kts
04-Nov-18 16:53 36.934331 -114.149296 219 16671ft 286kts
04-Nov-18 16:54 36.888844 -114.184676 218 16008ft 286kts
04-Nov-18 16:55 36.846506 -114.217568 218 15370ft 286kts
04-Nov-18 16:56 36.802074 -114.252020 218 15033ft 284kts
04-Nov-18 16:57 36.761532 -114.278449 192 15000ft 296kts
04-Nov-18 16:58 36.706098 -114.282598 188 14655ft 302kts
04-Nov-18 16:59 36.642326 -114.287645 188 13519ft 304kts
04-Nov-18 17:00 36.595065 -114.291414 188 12666ft 301kts
04-Nov-18 17:01 36.548506 -114.295135 187 11819ft 298kts
04-Nov-18 17:02 36.502078 -114.298861 187 10971ft 298kts
04-Nov-18 17:03 36.454581 -114.302774 188 10103ft 297kts
04-Nov-18 17:04 36.414968 -114.347229 241 8995ft 280kts
04-Nov-18 17:05 36.382683 -114.410750 241 7997ft 277kts
04-Nov-18 17:06 36.349079 -114.478395 241 7998ft 269kts
04-Nov-18 17:07 36.316798 -114.543726 241 8000ft 272kts
04-Nov-18 17:08 36.305848 -114.565768 241 7997ft 272kts
04-Nov-18 17:09 36.305848 -114.565768 241 7997ft 272kts
04-Nov-18 17:10 36.305848 -114.565768 241 7997ft 272kts
04-Nov-18 17:11 36.305848 -114.565768 241 7997ft 272kts
04-Nov-18 17:12 36.305848 -114.565768 241 7997ft 272kts
04-Nov-18 17:13 36.305848 -114.565768 241 7997ft 272kts
04-Nov-18 17:14 36.305848 -114.565768 241 7997ft 272kts
04-Nov-18 17:15 36.305848 -114.565768 241 7997ft 272kts
04-Nov-18 17:16 36.286957 -114.603628 241 7999ft 272kts
04-Nov-18 17:17 36.256665 -114.664239 241 7998ft 270kts
04-Nov-18 17:18 36.236229 -114.729415 270 7693ft 272kts
04-Nov-18 17:19 36.234327 -114.807398 271 6684ft 252kts
04-Nov-18 17:20 36.233031 -114.875280 271 5701ft 240kts
04-Nov-18 17:21 36.232098 -114.944057 271 5502ft 215kts
04-Nov-18 17:22 36.224863 -115.013830 251 5522ft 236kts
04-Nov-18 17:23 36.207046 -115.072185 251 5477ft 195kts
04-Nov-18 17:24 36.178137 -115.111157 206 4286ft 174kts
04-Nov-18 17:25 36.150834 -115.126253 206 3245ft 104kts
04-Nov-18 17:26 36.127897 -115.140388 203 2783ft 113kts
04-Nov-18 17:27 36.106173 -115.152519 204 2313ft 103kts
04-Nov-18 17:28 36.087613 -115.163384 205 2131ft 44kts
04-Nov-18 17:29 36.082970 -115.167474 209 2156ft 21kts
04-Nov-18 17:30 36.080828 -115.171251 239 2169ft 22kts
04-Nov-18 17:31 36.080803 -115.171574 275 2170ft 0kts
04-Nov-18 17:32 36.080803 -115.171574 275 2170ft 0kts
04-Nov-18 17:33 36.080803 -115.171574 275 2171ft 0kts
04-Nov-18 17:34 36.080803 -115.171574 275 2170ft 0kts
04-Nov-18 17:35 36.080803 -115.171574 275 2170ft 0kts
04-Nov-18 17:36 36.080803 -115.171574 275 2170ft 0kts
04-Nov-18 17:37 36.080803 -115.171574 275 2170ft 0kts
04-Nov-18 17:38 36.080803 -115.171574 275 2170ft 0kts
04-Nov-18 17:39 36.080803 -115.171574 275 2170ft 0kts
04-Nov-18 17:40 36.080803 -115.171574 275 2170ft 0kts
04-Nov-18 17:41 36.080803 -115.171574 275 2170ft 0kts
04-Nov-18 17:42 36.080803 -115.171574 275 2170ft 0kts
04-Nov-18 17:43 36.080803 -115.171574 275 2170ft 0kts
04-Nov-18 17:44 36.080803 -115.171574 275 2170ft 0kts

Navigation Log

Ident Type
Flight plan parsing failed, navigation log unavailable